Time;durP1;ratioP1;P1;durP2;ratioP2;P2;SDS_P1;SDS_P2;PMS_P1;PMS_P2;Temp;Humidity;BMP_temperature;BMP_pressure;BME280_temperature;BME280_humidity;BME280_pressure;Samples;Min_cycle;Max_cycle;Signal;HPM_P1;HPM_P2
2023/02/25 00:01:21;;;;;;;0.90;0.68;;;19.10;53.20;;;;;;6267742;28;20090;-69
2023/02/25 00:04:22;;;;;;;0.82;0.75;;;19.10;53.20;;;;;;6268979;28;20032;-68
2023/02/25 00:07:27;;;;;;;1.40;0.80;;;19.10;53.20;;;;;;6268765;28;20469;-68
2023/02/25 00:10:28;;;;;;;1.73;0.88;;;19.10;53.20;;;;;;6268809;28;20029;-68
2023/02/25 00:13:29;;;;;;;1.52;0.80;;;19.10;53.20;;;;;;6268816;28;20086;-69
2023/02/25 00:16:31;;;;;;;1.10;0.70;;;19.10;53.20;;;;;;6268884;28;20021;-68
2023/02/25 00:19:32;;;;;;;1.63;0.90;;;19.10;53.20;;;;;;6268719;28;20230;-68
2023/02/25 00:22:34;;;;;;;0.95;0.70;;;19.10;53.30;;;;;;6268579;28;20057;-69
2023/02/25 00:25:35;;;;;;;1.35;0.65;;;19.10;53.20;;;;;;6268569;28;20032;-68
2023/02/25 00:28:36;;;;;;;1.75;0.93;;;19.10;53.30;;;;;;6268501;28;20033;-69
2023/02/25 00:31:36;;;;;;;0.80;0.80;;;19.10;53.30;;;;;;6268483;28;20444;-71
2023/02/25 00:34:37;;;;;;;2.50;0.88;;;19.10;53.30;;;;;;6267952;28;20436;-68
2023/02/25 00:37:38;;;;;;;1.30;0.80;;;19.10;53.30;;;;;;6269319;28;20017;-70
2023/02/25 00:40:39;;;;;;;1.05;0.70;;;19.10;53.20;;;;;;6268992;28;20025;-71
2023/02/25 00:43:42;;;;;;;1.63;0.95;;;19.10;53.20;;;;;;6268363;28;20021;-68
2023/02/25 00:46:43;;;;;;;1.90;0.88;;;19.10;53.30;;;;;;6266964;28;20036;-70
2023/02/25 00:49:47;;;;;;;1.38;0.75;;;19.10;53.30;;;;;;6268647;28;20025;-71
2023/02/25 00:52:50;;;;;;;1.55;0.77;;;19.10;53.30;;;;;;6267440;28;20017;-71
2023/02/25 00:56:00;;;;;;;1.15;0.80;;;19.10;54.00;;;;;;6267275;28;20029;-71
2023/02/25 00:59:01;;;;;;;1.25;0.80;;;19.10;53.30;;;;;;6267226;28;20086;-71
2023/02/25 01:02:02;;;;;;;1.92;0.80;;;19.10;53.20;;;;;;6267468;28;20025;-71
2023/02/25 01:05:03;;;;;;;1.00;0.70;;;19.10;53.30;;;;;;6268143;28;20565;-71
2023/02/25 01:08:03;;;;;;;0.98;0.70;;;19.10;53.30;;;;;;6271858;28;20025;-70
2023/02/25 01:11:19;;;;;;;1.77;1.00;;;19.00;53.20;;;;;;6271553;28;20028;-70
2023/02/25 01:14:23;;;;;;;1.52;1.00;;;19.10;53.20;;;;;;6247566;28;20492;-68
2023/02/25 01:17:23;;;;;;;1.00;0.80;;;19.10;53.30;;;;;;6248191;28;20029;-68
2023/02/25 01:20:24;;;;;;;1.40;0.90;;;19.10;53.30;;;;;;6248841;28;20608;-68
2023/02/25 01:23:25;;;;;;;1.10;0.80;;;19.10;53.30;;;;;;6248060;28;20022;-68
2023/02/25 01:26:27;;;;;;;0.98;0.80;;;19.10;53.30;;;;;;6246681;28;20663;-68
2023/02/25 01:29:31;;;;;;;1.48;0.70;;;19.10;53.30;;;;;;6247660;28;20045;-68
2023/02/25 01:32:32;;;;;;;1.15;0.63;;;19.10;53.30;;;;;;6247637;28;20029;-68
2023/02/25 01:35:35;;;;;;;1.40;0.80;;;19.00;53.30;;;;;;6247819;28;20104;-68
2023/02/25 01:38:35;;;;;;;1.08;0.70;;;19.00;53.30;;;;;;6247500;28;20545;-68
2023/02/25 01:41:37;;;;;;;1.02;0.82;;;19.00;53.30;;;;;;6246516;28;20021;-68
2023/02/25 01:45:19;;;;;;;1.42;0.90;;;19.00;53.30;;;;;;6247055;28;20060;-68
2023/02/25 01:48:31;;;;;;;1.42;0.88;;;19.10;53.30;;;;;;6247187;28;20026;-69
2023/02/25 01:51:33;;;;;;;1.38;0.70;;;19.00;53.30;;;;;;6247520;28;20037;-68
2023/02/25 01:54:35;;;;;;;1.80;1.00;;;19.00;53.30;;;;;;6271707;28;20036;-68
2023/02/25 01:57:36;;;;;;;0.68;0.50;;;19.00;53.30;;;;;;6271065;28;20086;-68
2023/02/25 02:00:38;;;;;;;1.20;0.70;;;19.10;53.40;;;;;;6271684;28;20470;-68
2023/02/25 02:03:39;;;;;;;1.02;0.80;;;19.00;53.30;;;;;;6270254;28;20094;-68
2023/02/25 02:06:42;;;;;;;2.22;1.08;;;19.10;53.30;;;;;;6271358;28;20025;-68
2023/02/25 02:09:55;;;;;;;1.33;0.75;;;19.10;53.30;;;;;;6271311;28;20021;-68
2023/02/25 02:12:56;;;;;;;1.05;0.70;;;19.10;53.40;;;;;;6271521;28;20078;-68
2023/02/25 02:16:27;;;;;;;1.05;0.73;;;19.00;53.30;;;;;;6270872;28;20429;-68
2023/02/25 02:20:00;;;;;;;0.70;0.50;;;19.00;53.30;;;;;;6270863;28;20084;-69
2023/02/25 02:23:32;;;;;;;0.85;0.60;;;19.10;53.40;;;;;;6257903;28;20091;-68
2023/02/25 02:26:49;;;;;;;1.17;0.60;;;19.00;53.30;;;;;;6269848;28;20021;-68
2023/02/25 02:30:10;;;;;;;1.45;0.60;;;19.10;53.40;;;;;;6270864;28;20028;-68
2023/02/25 02:33:34;;;;;;;1.00;0.70;;;19.00;53.30;;;;;;6269991;28;20036;-68
2023/02/25 02:36:59;;;;;;;1.25;0.68;;;19.00;53.30;;;;;;6270895;28;20033;-68
2023/02/25 02:40:28;;;;;;;2.78;0.75;;;19.10;53.40;;;;;;6270592;28;20021;-68
2023/02/25 02:43:46;;;;;;;1.08;0.68;;;19.00;53.30;;;;;;6270723;28;20494;-68
2023/02/25 02:47:05;;;;;;;1.42;0.77;;;19.00;53.30;;;;;;6268861;28;20021;-67
2023/02/25 02:50:18;;;;;;;0.85;0.70;;;19.10;53.40;;;;;;6268953;28;20051;-68
2023/02/25 02:53:36;;;;;;;0.60;0.60;;;19.10;53.40;;;;;;6270092;28;20029;-68
2023/02/25 02:56:41;;;;;;;1.42;0.77;;;19.10;53.40;;;;;;6269939;28;20451;-68
2023/02/25 02:59:50;;;;;;;1.10;0.70;;;19.10;53.40;;;;;;6268916;28;20486;-68
2023/02/25 03:02:57;;;;;;;0.57;0.50;;;19.00;53.40;;;;;;6270139;28;20025;-67
2023/02/25 03:05:57;;;;;;;1.38;0.90;;;19.00;53.40;;;;;;6270138;28;20024;-68
2023/02/25 03:09:08;;;;;;;0.90;0.60;;;19.00;53.40;;;;;;6269964;28;20021;-67
2023/02/25 03:12:09;;;;;;;1.08;0.75;;;19.00;53.40;;;;;;6269991;28;20762;-68
2023/02/25 03:15:10;;;;;;;1.30;0.80;;;19.00;53.40;;;;;;6270214;28;20025;-68
2023/02/25 03:18:31;;;;;;;0.60;0.50;;;19.10;53.40;;;;;;6268499;28;20021;-67
2023/02/25 03:21:40;;;;;;;0.52;0.50;;;19.10;53.50;;;;;;6269707;28;20518;-67
2023/02/25 03:25:06;;;;;;;0.95;0.70;;;19.00;53.40;;;;;;6268800;28;20025;-67
2023/02/25 03:28:24;;;;;;;0.90;0.60;;;19.00;53.40;;;;;;6269379;28;20106;-68
2023/02/25 03:31:38;;;;;;;1.88;0.70;;;19.00;53.40;;;;;;6268244;28;20025;-67
2023/02/25 03:34:44;;;;;;;0.70;0.60;;;19.10;53.50;;;;;;6268357;28;20592;-68
2023/02/25 03:37:49;;;;;;;0.63;0.50;;;19.00;53.40;;;;;;6269459;28;20642;-67
2023/02/25 03:40:52;;;;;;;1.35;0.70;;;19.00;53.40;;;;;;6269130;28;20505;-67
2023/02/25 03:43:55;;;;;;;1.40;0.80;;;19.10;53.50;;;;;;6268808;28;20035;-68
2023/02/25 03:46:58;;;;;;;0.75;0.60;;;19.00;53.40;;;;;;6269379;28;20464;-68
2023/02/25 03:50:14;;;;;;;1.02;0.70;;;19.00;53.40;;;;;;6269295;28;20505;-68
2023/02/25 03:53:15;;;;;;;1.20;0.70;;;19.00;53.40;;;;;;6267985;28;20055;-68
2023/02/25 03:56:15;;;;;;;0.60;0.50;;;19.00;53.40;;;;;;6269390;28;20457;-67
2023/02/25 03:59:18;;;;;;;1.35;0.90;;;19.00;53.40;;;;;;6269132;28;20546;-68
2023/02/25 04:02:21;;;;;;;0.70;0.65;;;19.00;53.40;;;;;;6268987;28;20024;-68
2023/02/25 04:05:26;;;;;;;1.50;0.80;;;19.00;53.40;;;;;;6269241;28;20029;-67
2023/02/25 04:08:27;;;;;;;0.75;0.60;;;19.00;53.40;;;;;;6268749;28;20523;-67
2023/02/25 04:11:27;;;;;;;1.10;0.80;;;19.00;53.40;;;;;;6269094;28;20025;-67
2023/02/25 04:14:28;;;;;;;0.82;0.60;;;19.00;53.40;;;;;;6267479;28;20094;-68
2023/02/25 04:17:29;;;;;;;0.98;0.70;;;19.00;53.40;;;;;;6269255;28;20036;-68
2023/02/25 04:20:29;;;;;;;0.93;0.70;;;19.00;53.40;;;;;;6268444;28;20678;-68
2023/02/25 04:23:30;;;;;;;0.70;0.60;;;19.00;53.40;;;;;;6269031;28;20589;-67
2023/02/25 04:26:32;;;;;;;0.80;0.63;;;19.00;53.40;;;;;;6268785;28;20035;-68
2023/02/25 04:29:33;;;;;;;1.10;0.68;;;19.00;54.10;;;;;;6269113;28;20025;-67
2023/02/25 04:32:33;;;;;;;0.82;0.65;;;19.00;53.50;;;;;;6268715;28;20048;-68
2023/02/25 04:35:34;;;;;;;0.50;0.50;;;19.00;53.40;;;;;;6268714;28;20021;-68
2023/02/25 04:38:35;;;;;;;0.82;0.70;;;19.00;53.40;;;;;;6268399;28;20135;-68
2023/02/25 04:41:36;;;;;;;0.70;0.45;;;19.00;53.40;;;;;;6272480;28;20480;-68
2023/02/25 04:44:36;;;;;;;0.95;0.60;;;19.00;53.40;;;;;;6271828;28;20482;-67
2023/02/25 04:47:37;;;;;;;0.65;0.60;;;19.00;53.40;;;;;;6272186;28;20071;-69
2023/02/25 04:50:38;;;;;;;0.30;0.30;;;19.00;53.40;;;;;;6273234;28;20022;-68
2023/02/25 04:53:38;;;;;;;0.50;0.40;;;19.00;53.50;;;;;;6273462;28;20138;-67
2023/02/25 04:56:39;;;;;;;0.55;0.47;;;19.00;53.40;;;;;;6273238;28;20499;-68
2023/02/25 05:00:33;;;;;;;0.65;0.60;;;19.00;53.40;;;;;;6273347;28;20021;-68
2023/02/25 05:03:34;;;;;;;0.70;0.50;;;19.00;53.40;;;;;;6271594;28;20129;-68
2023/02/25 05:06:35;;;;;;;1.00;0.63;;;19.00;53.40;;;;;;6273109;28;20025;-67
2023/02/25 05:09:35;;;;;;;1.50;0.50;;;19.00;53.40;;;;;;6272580;28;20032;-68
2023/02/25 05:12:36;;;;;;;0.40;0.40;;;19.00;53.50;;;;;;6272956;28;20028;-68
2023/02/25 05:15:37;;;;;;;0.63;0.47;;;19.00;53.50;;;;;;6272697;28;20056;-68
2023/02/25 05:18:39;;;;;;;0.50;0.45;;;19.00;53.50;;;;;;6271633;28;20067;-68
2023/02/25 05:21:40;;;;;;;0.90;0.50;;;19.00;53.50;;;;;;6272424;28;20583;-68
2023/02/25 05:24:41;;;;;;;0.60;0.47;;;19.00;53.50;;;;;;6272684;28;20025;-67
2023/02/25 05:27:41;;;;;;;0.88;0.70;;;19.00;53.50;;;;;;6272541;28;20482;-67
2023/02/25 05:30:42;;;;;;;0.82;0.60;;;19.00;53.50;;;;;;6272363;28;20025;-68
2023/02/25 05:33:43;;;;;;;0.40;0.40;;;19.00;53.50;;;;;;6272107;28;20025;-68
2023/02/25 05:36:45;;;;;;;1.05;0.73;;;19.00;53.50;;;;;;6272455;28;20090;-68
2023/02/25 05:39:46;;;;;;;0.50;0.50;;;19.00;53.50;;;;;;6267961;28;20036;-67
2023/02/25 05:42:48;;;;;;;0.50;0.50;;;19.00;53.50;;;;;;6272164;28;20650;-67
2023/02/25 05:45:56;;;;;;;0.82;0.77;;;19.00;53.50;;;;;;6271702;28;20059;-67
2023/02/25 05:48:57;;;;;;;0.75;0.63;;;19.00;53.60;;;;;;6272047;28;20497;-67
2023/02/25 05:51:58;;;;;;;0.63;0.50;;;19.00;53.60;;;;;;6270543;28;20021;-67
2023/02/25 05:54:59;;;;;;;0.73;0.65;;;19.00;53.50;;;;;;6270574;28;20033;-68
2023/02/25 05:57:59;;;;;;;1.65;0.60;;;19.00;53.60;;;;;;6271810;28;20025;-67
2023/02/25 06:01:09;;;;;;;0.60;0.57;;;19.00;53.60;;;;;;6271928;28;20029;-67
2023/02/25 06:04:10;;;;;;;0.77;0.47;;;19.00;53.60;;;;;;6270474;28;20029;-67
2023/02/25 06:07:10;;;;;;;0.93;0.65;;;19.10;53.70;;;;;;6270051;28;20025;-67
2023/02/25 06:10:11;;;;;;;0.70;0.57;;;19.00;53.60;;;;;;6271582;28;20131;-68
2023/02/25 06:13:12;;;;;;;0.65;0.55;;;19.00;53.70;;;;;;6271321;28;20056;-68
2023/02/25 06:16:13;;;;;;;0.70;0.60;;;19.00;53.70;;;;;;6270055;28;20057;-67
2023/02/25 06:19:14;;;;;;;0.77;0.60;;;19.00;53.70;;;;;;6271281;28;20390;-67
2023/02/25 06:22:14;;;;;;;0.50;0.50;;;19.00;53.70;;;;;;6270026;28;20028;-68
2023/02/25 06:25:16;;;;;;;0.98;0.60;;;19.10;53.70;;;;;;6271011;28;20196;-68
2023/02/25 06:28:16;;;;;;;0.60;0.50;;;19.10;53.70;;;;;;6271250;28;20557;-67
2023/02/25 06:31:18;;;;;;;0.57;0.43;;;19.10;53.70;;;;;;6271408;28;20032;-68
2023/02/25 06:34:19;;;;;;;0.68;0.50;;;19.10;53.70;;;;;;6271244;28;20028;-68
2023/02/25 06:37:19;;;;;;;0.43;0.43;;;19.10;53.80;;;;;;6270816;28;20048;-67
2023/02/25 06:40:20;;;;;;;0.63;0.60;;;19.10;53.70;;;;;;6269574;28;20028;-68
2023/02/25 06:43:21;;;;;;;0.30;0.30;;;19.00;53.70;;;;;;6270675;28;20747;-67
2023/02/25 06:46:24;;;;;;;0.40;0.30;;;19.10;53.80;;;;;;6270787;28;20025;-68
2023/02/25 06:49:24;;;;;;;0.68;0.50;;;19.00;53.70;;;;;;6271047;28;20052;-68
2023/02/25 06:52:25;;;;;;;0.43;0.43;;;19.00;53.70;;;;;;6269390;28;20078;-67
2023/02/25 06:55:26;;;;;;;0.60;0.57;;;19.10;53.80;;;;;;6270186;28;20107;-67
2023/02/25 06:58:28;;;;;;;0.38;0.35;;;19.10;53.80;;;;;;6270031;28;20033;-68
2023/02/25 07:01:29;;;;;;;0.82;0.50;;;19.00;53.70;;;;;;6264430;28;20021;-68
2023/02/25 07:04:30;;;;;;;0.40;0.40;;;19.10;53.80;;;;;;6255622;28;20029;-68
2023/02/25 07:07:31;;;;;;;1.75;0.50;;;19.00;53.70;;;;;;6269196;28;20025;-68
2023/02/25 07:10:32;;;;;;;0.45;0.40;;;19.10;53.80;;;;;;6269404;28;20398;-68
2023/02/25 07:13:33;;;;;;;0.70;0.50;;;19.00;53.80;;;;;;6256841;28;20035;-68
2023/02/25 07:16:34;;;;;;;0.80;0.60;;;19.00;53.70;;;;;;6262955;28;20021;-68
2023/02/25 07:19:34;;;;;;;0.52;0.52;;;19.00;53.70;;;;;;6271419;28;20044;-68
2023/02/25 07:22:35;;;;;;;0.55;0.52;;;19.00;53.80;;;;;;6267208;28;20159;-67
2023/02/25 07:25:37;;;;;;;0.70;0.60;;;19.10;53.80;;;;;;6268006;28;20071;-68
2023/02/25 07:28:39;;;;;;;0.63;0.60;;;19.10;53.80;;;;;;6266668;28;20071;-68
2023/02/25 07:31:40;;;;;;;0.43;0.43;;;19.10;53.80;;;;;;6266748;28;20482;-67
2023/02/25 07:34:40;;;;;;;0.65;0.50;;;19.10;53.80;;;;;;6266089;28;20028;-69
2023/02/25 07:37:41;;;;;;;1.17;0.73;;;19.10;53.80;;;;;;6266714;28;20025;-70
2023/02/25 07:40:42;;;;;;;0.70;0.50;;;19.10;53.80;;;;;;6266520;28;20036;-70
2023/02/25 07:43:43;;;;;;;0.88;0.52;;;19.10;53.80;;;;;;6265335;28;20032;-70
2023/02/25 07:46:43;;;;;;;0.60;0.57;;;19.10;53.80;;;;;;6266993;28;20083;-71
2023/02/25 07:49:45;;;;;;;0.77;0.38;;;19.00;53.80;;;;;;6252078;28;20029;-70
2023/02/25 07:52:47;;;;;;;1.10;0.50;;;19.10;53.80;;;;;;6275901;28;20033;-70
2023/02/25 07:55:49;;;;;;;0.45;0.43;;;19.10;53.80;;;;;;6260497;28;20077;-70
2023/02/25 07:58:50;;;;;;;0.57;0.50;;;19.10;53.80;;;;;;6256916;28;20032;-71
2023/02/25 08:01:50;;;;;;;0.52;0.47;;;19.10;53.80;;;;;;6260294;28;20057;-70
2023/02/25 08:04:51;;;;;;;0.50;0.50;;;19.00;53.80;;;;;;6262118;28;20233;-71
2023/02/25 08:07:52;;;;;;;1.00;0.60;;;19.00;53.80;;;;;;6280679;28;20075;-71
2023/02/25 08:10:52;;;;;;;0.30;0.30;;;19.00;53.80;;;;;;6282510;28;20020;-71
2023/02/25 08:13:54;;;;;;;0.30;0.30;;;19.10;53.80;;;;;;6256806;28;20111;-71
2023/02/25 08:16:56;;;;;;;0.80;0.40;;;19.00;53.80;;;;;;6293555;28;20032;-70
2023/02/25 08:19:57;;;;;;;1.75;0.40;;;19.00;53.80;;;;;;6296453;28;20036;-71
2023/02/25 08:22:58;;;;;;;0.50;0.50;;;19.10;53.80;;;;;;6287234;28;20397;-70
2023/02/25 08:25:59;;;;;;;0.60;0.60;;;19.10;53.80;;;;;;6286617;28;20664;-71
2023/02/25 08:29:00;;;;;;;0.70;0.60;;;19.00;54.40;;;;;;6285921;28;20024;-71
2023/02/25 08:32:01;;;;;;;0.85;0.70;;;19.10;53.80;;;;;;6292277;28;20052;-71
2023/02/25 08:35:03;;;;;;;0.40;0.40;;;19.10;53.80;;;;;;6283031;28;20683;-70
2023/02/25 08:38:05;;;;;;;0.50;0.50;;;19.10;53.80;;;;;;6295521;28;20021;-70
2023/02/25 08:41:06;;;;;;;0.50;0.40;;;19.00;53.80;;;;;;6270702;28;20083;-70
2023/02/25 08:44:07;;;;;;;0.43;0.40;;;19.00;53.80;;;;;;6270411;28;20417;-70
2023/02/25 08:47:07;;;;;;;0.43;0.40;;;19.00;53.80;;;;;;6270372;28;20021;-70
2023/02/25 08:50:10;;;;;;;0.40;0.40;;;19.10;53.80;;;;;;6274727;28;20100;-70
2023/02/25 08:53:11;;;;;;;0.40;0.30;;;19.10;53.90;;;;;;6294519;28;20127;-70
2023/02/25 08:56:15;;;;;;;0.85;0.60;;;19.00;54.50;;;;;;6277554;28;20034;-69
2023/02/25 08:59:16;;;;;;;0.40;0.40;;;19.00;53.90;;;;;;6270003;28;20103;-70
2023/02/25 09:02:17;;;;;;;0.47;0.47;;;19.00;53.80;;;;;;6270386;28;20029;-69
2023/02/25 09:05:18;;;;;;;0.50;0.50;;;19.00;53.80;;;;;;6273342;28;20032;-69
2023/02/25 09:08:19;;;;;;;0.40;0.40;;;19.00;53.80;;;;;;6293886;28;20020;-70
2023/02/25 09:11:21;;;;;;;0.50;0.40;;;19.00;53.80;;;;;;6274419;28;20659;-71
2023/02/25 09:14:22;;;;;;;1.42;0.52;;;19.00;53.90;;;;;;6270088;28;20029;-70
2023/02/25 09:17:22;;;;;;;0.77;0.50;;;19.00;53.80;;;;;;6289633;28;20504;-71
2023/02/25 09:20:24;;;;;;;0.73;0.43;;;19.10;53.90;;;;;;6294448;28;20048;-69
2023/02/25 09:23:25;;;;;;;0.45;0.40;;;19.00;53.80;;;;;;6293374;28;20025;-70
2023/02/25 09:26:26;;;;;;;1.52;0.60;;;19.10;53.90;;;;;;6288995;28;20027;-70
2023/02/25 09:29:27;;;;;;;0.35;0.35;;;19.00;53.80;;;;;;6282953;28;20049;-70
2023/02/25 09:32:27;;;;;;;1.73;0.50;;;19.00;53.80;;;;;;6286923;28;20024;-70
2023/02/25 09:35:28;;;;;;;1.05;0.70;;;19.10;53.80;;;;;;6274725;28;20029;-70
2023/02/25 09:38:29;;;;;;;0.95;0.65;;;19.00;53.80;;;;;;6267989;28;20028;-70
2023/02/25 09:41:30;;;;;;;0.73;0.35;;;19.10;53.90;;;;;;6275595;28;20028;-70
2023/02/25 09:44:36;;;;;;;0.95;0.50;;;19.00;53.90;;;;;;6275401;28;20063;-70
2023/02/25 09:47:36;;;;;;;1.55;0.70;;;19.00;53.80;;;;;;6277784;28;20490;-70
2023/02/25 09:50:45;;;;;;;5.07;0.50;;;19.00;53.80;;;;;;6268356;28;20031;-70
2023/02/25 09:54:01;;;;;;;3.53;0.50;;;19.10;53.80;;;;;;6275303;28;20028;-70
2023/02/25 09:57:05;;;;;;;0.57;0.50;;;19.10;53.80;;;;;;6279813;28;20021;-71
2023/02/25 10:00:15;;;;;;;1.23;0.60;;;19.10;53.80;;;;;;6294104;28;20029;-70
2023/02/25 10:03:21;;;;;;;0.75;0.50;;;19.10;53.80;;;;;;6282796;28;20020;-70
2023/02/25 10:06:28;;;;;;;1.85;0.55;;;19.10;53.80;;;;;;6291807;28;20024;-70
2023/02/25 10:09:52;;;;;;;1.33;0.40;;;19.10;53.80;;;;;;6265722;28;20025;-70
2023/02/25 10:13:06;;;;;;;1.65;0.60;;;19.10;53.70;;;;;;6262177;28;20481;-70
2023/02/25 10:16:33;;;;;;;3.70;0.43;;;19.10;53.70;;;;;;6266589;28;20393;-71
2023/02/25 10:19:52;;;;;;;3.50;0.60;;;19.10;53.80;;;;;;6281010;28;20560;-71
2023/02/25 10:23:23;;;;;;;1.77;0.50;;;19.10;53.80;;;;;;6271804;28;20128;-71
2023/02/25 10:26:28;;;;;;;1.30;0.50;;;19.10;53.80;;;;;;6293578;28;20109;-71
2023/02/25 10:29:34;;;;;;;;;;;19.10;53.80;;;;;;6293170;28;20393;-70
2023/02/25 10:32:37;;;;;;;2.10;0.70;;;19.10;53.80;;;;;;6269522;28;19912;-70
2023/02/25 10:35:39;;;;;;;0.50;0.40;;;19.20;53.80;;;;;;6268154;28;20433;-70
2023/02/25 10:38:48;;;;;;;1.40;0.63;;;19.20;53.80;;;;;;6283314;28;20070;-71
2023/02/25 10:41:50;;;;;;;3.17;0.80;;;19.10;53.70;;;;;;6291905;28;20389;-71
2023/02/25 10:44:52;;;;;;;0.98;0.60;;;19.10;53.70;;;;;;6292922;28;20029;-71
2023/02/25 10:48:19;;;;;;;4.43;0.70;;;19.10;53.80;;;;;;6270395;28;20592;-71
2023/02/25 10:51:20;;;;;;;1.40;0.60;;;19.10;53.80;;;;;;6266867;28;20031;-71
2023/02/25 10:54:23;;;;;;;1.23;0.70;;;19.10;53.80;;;;;;6267908;28;20025;-72
2023/02/25 10:57:39;;;;;;;2.38;0.47;;;19.10;53.80;;;;;;6256210;28;20028;-71
2023/02/25 11:00:55;;;;;;;1.42;0.70;;;19.10;53.80;;;;;;6290893;28;20235;-70
2023/02/25 11:03:59;;;;;;;0.57;0.50;;;19.10;53.80;;;;;;6291593;28;20048;-71
2023/02/25 11:07:00;;;;;;;3.28;0.50;;;19.10;53.70;;;;;;6289010;28;20020;-71
2023/02/25 11:10:20;;;;;;;1.20;0.40;;;19.10;53.80;;;;;;6288295;28;20023;-71
2023/02/25 11:13:29;;;;;;;2.00;0.63;;;19.10;53.80;;;;;;6265809;28;20021;-70
2023/02/25 11:16:36;;;;;;;2.58;0.85;;;19.10;53.80;;;;;;6265713;28;20563;-71
2023/02/25 11:19:48;;;;;;;1.30;0.50;;;19.10;53.70;;;;;;6284840;28;20049;-71
2023/02/25 11:22:54;;;;;;;1.13;0.80;;;19.10;53.80;;;;;;6275736;28;20053;-71
2023/02/25 11:25:56;;;;;;;0.80;0.50;;;19.10;53.80;;;;;;6266686;28;20031;-72
2023/02/25 11:29:10;;;;;;;2.47;0.52;;;19.10;53.80;;;;;;6276907;28;20869;-71
2023/02/25 11:32:15;;;;;;;4.13;0.73;;;19.10;53.80;;;;;;6290733;28;20036;-71
2023/02/25 11:35:44;;;;;;;0.52;0.50;;;19.10;53.80;;;;;;6270012;28;20021;-71
2023/02/25 11:38:45;;;;;;;1.33;0.50;;;19.10;53.80;;;;;;6264163;28;20029;-70
2023/02/25 11:41:48;;;;;;;1.13;0.60;;;19.10;53.80;;;;;;6267419;28;20025;-71
2023/02/25 11:44:57;;;;;;;6.25;0.60;;;19.10;53.80;;;;;;6280927;28;20079;-72
2023/02/25 11:47:58;;;;;;;0.90;0.50;;;19.10;53.80;;;;;;6276509;28;20075;-68
2023/02/25 11:51:46;;;;;;;1.52;0.50;;;19.10;53.70;;;;;;6275982;28;20104;-70
2023/02/25 11:55:19;;;;;;;6.30;0.50;;;19.10;53.60;;;;;;6276924;28;20016;-68
2023/02/25 11:58:46;;;;;;;3.78;0.63;;;19.10;53.10;;;;;;6276166;28;20144;-71
2023/02/25 12:02:32;;;;;;;1.52;0.60;;;19.10;53.00;;;;;;6294882;28;20558;-71
2023/02/25 12:05:40;;;;;;;0.63;0.40;;;19.10;53.10;;;;;;6296573;28;20077;-68
2023/02/25 12:08:50;;;;;;;1.05;0.50;;;19.10;53.20;;;;;;6275953;28;20021;-68
2023/02/25 12:11:58;;;;;;;1.10;0.60;;;19.10;53.10;;;;;;6278058;28;20098;-68
2023/02/25 12:15:34;;;;;;;0.70;0.50;;;19.10;53.10;;;;;;6279876;28;20073;-68
2023/02/25 12:19:13;;;;;;;3.10;1.20;;;19.10;53.20;;;;;;6252788;28;20041;-68
2023/02/25 12:22:45;;;;;;;1.20;1.00;;;19.10;53.20;;;;;;6254293;28;20040;-68
2023/02/25 12:25:55;;;;;;;3.47;0.75;;;19.10;53.20;;;;;;6280586;28;20028;-68
2023/02/25 12:29:21;;;;;;;2.03;1.17;;;19.10;53.20;;;;;;6290003;28;20068;-68
2023/02/25 12:32:21;;;;;;;2.20;1.30;;;19.10;53.20;;;;;;6287465;28;20124;-68
2023/02/25 12:35:37;;;;;;;2.28;1.20;;;19.10;53.20;;;;;;6278041;28;20473;-68
2023/02/25 12:38:44;;;;;;;2.08;1.20;;;19.10;53.20;;;;;;6290407;28;20024;-67
2023/02/25 12:41:52;;;;;;;2.33;1.08;;;19.10;53.20;;;;;;6270228;28;20561;-68
2023/02/25 12:45:02;;;;;;;1.48;1.05;;;19.10;53.10;;;;;;6266539;28;20468;-68
2023/02/25 12:48:09;;;;;;;1.80;1.08;;;19.10;53.10;;;;;;6267183;28;20040;-68
2023/02/25 12:51:31;;;;;;;2.47;1.10;;;19.10;53.20;;;;;;6267614;28;20025;-68
2023/02/25 12:54:43;;;;;;;1.13;0.90;;;19.10;53.20;;;;;;6268024;28;20075;-68
2023/02/25 12:57:49;;;;;;;1.58;1.05;;;19.10;53.20;;;;;;6255129;28;20067;-68
2023/02/25 13:00:59;;;;;;;1.60;1.10;;;19.10;53.20;;;;;;6292016;28;20102;-68
2023/02/25 13:04:11;;;;;;;0.90;0.80;;;19.10;53.20;;;;;;6296309;28;20060;-68
2023/02/25 13:07:24;;;;;;;1.58;0.93;;;19.10;53.20;;;;;;6295163;28;20028;-68
2023/02/25 13:10:49;;;;;;;1.05;0.77;;;19.10;53.20;;;;;;6289101;28;20382;-68
2023/02/25 13:13:59;;;;;;;1.15;0.90;;;19.10;53.20;;;;;;6271555;28;20500;-68
2023/02/25 13:17:09;;;;;;;1.02;0.90;;;19.10;53.20;;;;;;6290841;28;20040;-68
2023/02/25 13:20:28;;;;;;;1.35;0.88;;;19.10;53.20;;;;;;6274418;28;20048;-68
2023/02/25 13:23:53;;;;;;;0.98;0.70;;;19.10;53.20;;;;;;6271416;28;20033;-68
2023/02/25 13:27:22;;;;;;;1.13;0.98;;;19.10;53.20;;;;;;6289294;28;20044;-68
2023/02/25 13:30:32;;;;;;;0.98;0.60;;;19.10;53.20;;;;;;6291821;28;20025;-68
2023/02/25 13:33:56;;;;;;;1.63;0.90;;;19.10;53.20;;;;;;6271221;28;20071;-68
2023/02/25 13:37:36;;;;;;;1.00;0.63;;;19.10;53.20;;;;;;6270940;28;20027;-68
2023/02/25 13:41:07;;;;;;;3.78;0.70;;;19.10;53.20;;;;;;6276289;28;20050;-68
2023/02/25 13:44:18;;;;;;;1.17;0.80;;;19.10;53.10;;;;;;6295923;28;20029;-68
2023/02/25 13:47:39;;;;;;;0.85;0.80;;;19.10;53.20;;;;;;6277142;28;20386;-68
2023/02/25 13:51:23;;;;;;;1.15;0.85;;;19.10;53.20;;;;;;6270759;28;20029;-67
2023/02/25 13:54:52;;;;;;;3.05;0.60;;;19.10;53.10;;;;;;6261016;28;20041;-68
2023/02/25 13:58:12;;;;;;;0.82;0.65;;;19.10;53.10;;;;;;6248711;28;20037;-68
2023/02/25 14:01:38;;;;;;;2.47;0.70;;;19.10;53.20;;;;;;6253333;28;20477;-68
2023/02/25 14:04:48;;;;;;;0.80;0.70;;;19.10;53.10;;;;;;6270351;28;20109;-68
2023/02/25 14:07:59;;;;;;;1.00;0.80;;;19.10;53.10;;;;;;6287197;28;20029;-68
2023/02/25 14:11:16;;;;;;;0.73;0.65;;;19.10;53.10;;;;;;6290920;28;20493;-68
2023/02/25 14:14:25;;;;;;;2.75;0.65;;;19.10;53.10;;;;;;6264051;28;20025;-68
2023/02/25 14:17:35;;;;;;;2.40;0.82;;;19.10;53.10;;;;;;6285960;28;20103;-68
2023/02/25 14:20:56;;;;;;;1.63;0.60;;;19.20;53.10;;;;;;6295131;28;20041;-68
2023/02/25 14:24:17;;;;;;;1.33;0.80;;;19.10;53.00;;;;;;6289219;28;20021;-67
2023/02/25 14:27:40;;;;;;;0.65;0.60;;;19.20;53.10;;;;;;6293777;28;20025;-68
2023/02/25 14:30:55;;;;;;;0.77;0.63;;;19.20;53.10;;;;;;6294972;28;20024;-67
2023/02/25 14:34:04;;;;;;;1.58;0.80;;;19.10;52.90;;;;;;6294332;28;20028;-68
2023/02/25 14:37:32;;;;;;;2.20;0.80;;;19.20;53.10;;;;;;6276910;28;20032;-68
2023/02/25 14:40:38;;;;;;;1.67;0.75;;;19.10;53.10;;;;;;6269991;28;20641;-68
2023/02/25 14:43:40;;;;;;;2.22;0.85;;;19.10;53.10;;;;;;6268063;28;20404;-68
2023/02/25 14:46:51;;;;;;;3.28;0.60;;;19.10;53.10;;;;;;6269052;28;20067;-68
2023/02/25 14:50:10;;;;;;;1.15;0.77;;;19.10;53.10;;;;;;6269248;28;20474;-68
2023/02/25 14:53:32;;;;;;;0.93;0.60;;;19.10;53.10;;;;;;6260318;28;20017;-68
2023/02/25 14:56:56;;;;;;;1.55;0.80;;;19.10;53.00;;;;;;6263479;28;20503;-68
2023/02/25 15:00:22;;;;;;;0.80;0.68;;;19.10;53.00;;;;;;6268794;28;20021;-68
2023/02/25 15:03:58;;;;;;;0.93;0.70;;;19.10;53.10;;;;;;6268484;28;20056;-67
2023/02/25 15:07:38;;;;;;;1.15;0.52;;;19.20;53.10;;;;;;6269841;28;20124;-68
2023/02/25 15:11:12;;;;;;;4.50;0.77;;;19.10;53.10;;;;;;6293757;28;20087;-68
2023/02/25 15:14:51;;;;;;;1.90;0.82;;;19.10;53.00;;;;;;6269180;28;20028;-68
2023/02/25 15:18:21;;;;;;;1.25;0.70;;;19.10;52.80;;;;;;6267176;28;20068;-67
2023/02/25 15:21:45;;;;;;;0.98;0.65;;;19.10;52.90;;;;;;6267985;28;20099;-68
2023/02/25 15:24:46;;;;;;;2.05;0.57;;;19.10;52.80;;;;;;6243680;28;20588;-67
2023/02/25 15:27:48;;;;;;;9.50;1.05;;;19.10;52.90;;;;;;6243761;28;20037;-68
2023/02/25 15:31:01;;;;;;;1.20;0.75;;;19.20;53.20;;;;;;6242998;28;20546;-68
2023/02/25 15:34:20;;;;;;;1.63;0.70;;;19.20;53.40;;;;;;6243422;28;20465;-68
2023/02/25 15:37:22;;;;;;;1.88;0.75;;;19.20;53.30;;;;;;6244041;28;20087;-67
2023/02/25 15:40:32;;;;;;;1.65;0.70;;;19.20;53.20;;;;;;6242715;28;20118;-68
2023/02/25 15:43:40;;;;;;;1.00;0.70;;;19.20;53.20;;;;;;6269430;28;20077;-67
2023/02/25 15:46:48;;;;;;;2.63;0.68;;;19.20;53.10;;;;;;6291669;28;20016;-68
2023/02/25 15:49:50;;;;;;;0.98;0.60;;;19.10;53.10;;;;;;6293122;28;20028;-68
2023/02/25 15:52:57;;;;;;;2.85;1.05;;;19.10;53.00;;;;;;6293857;28;20023;-67
2023/02/25 15:56:04;;;;;;;0.82;0.70;;;19.20;53.10;;;;;;6292731;28;20109;-67
2023/02/25 15:59:04;;;;;;;1.10;0.68;;;19.20;53.10;;;;;;6292818;28;20024;-68
2023/02/25 16:02:32;;;;;;;0.77;0.43;;;19.20;53.10;;;;;;6292990;28;20440;-67
2023/02/25 16:05:34;;;;;;;1.00;0.60;;;19.10;52.90;;;;;;6242726;28;20034;-67
2023/02/25 16:08:39;;;;;;;0.80;0.60;;;19.20;52.90;;;;;;6288939;28;20074;-67
2023/02/25 16:11:48;;;;;;;0.90;0.50;;;19.10;53.00;;;;;;6291676;28;20024;-67
2023/02/25 16:14:49;;;;;;;1.45;0.60;;;19.10;53.00;;;;;;6271368;28;20023;-68
2023/02/25 16:17:51;;;;;;;0.57;0.50;;;19.20;53.00;;;;;;6271137;28;20009;-67
2023/02/25 16:21:01;;;;;;;0.57;0.52;;;19.20;53.10;;;;;;6292014;28;20087;-67